Flight Track Log - Related Links

Times and Time Zones

All times are in EDT time to prevent confusion due to time zone crossing. See the PRY5 flight status page for this flight to view local times or setup timezone preferences in your user account.

Time Position Orientation Groundspeed Altitude Reporting Facility
EDT Latitude Longitude Course Direction KTS MPH feet Rate Location/Type
Wed 02:17:09 PM 40.6833 -73.4333 237° Southwest 124 143 2,000  Level New York TRACON
Wed 02:18:09 PM 40.6667 -73.4667 270° West 129 148 3,300 1,300 Climbing New York TRACON
Wed 02:19:09 PM 40.6667 -73.5000 270° West 118 136 4,600 1,211 Climbing New York TRACON
Wed 02:20:03 PM 40.6667 -73.5500 270° West 120 138 5,600 737 Climbing New York TRACON
Wed 02:21:03 PM 40.6667 -73.6000 246° West 152 175 6,000 149 Climbing New York TRACON
Wed 02:22:04 PM 40.6500 -73.6500 252° West 169 194 5,900  Descending New York TRACON
Wed 02:23:04 PM 40.6333 -73.7167 270° West 160 184 6,000 50 Climbing New York TRACON
Wed 02:24:04 PM 40.6333 -73.7667 207° Southwest 148 170 6,000  Level New York TRACON
Wed 02:25:04 PM 40.5833 -73.8000 217° Southwest 165 190 6,000  Level New York TRACON
Wed 02:26:04 PM 40.5500 -73.8333 207° Southwest 169 194 6,000 50 Level New York TRACON
Wed 02:27:03 PM 40.5000 -73.8667 217° Southwest 171 197 6,100 50 Climbing New York TRACON
Wed 02:28:04 PM 40.4667 -73.9000 194° South 171 197 6,100  Level New York TRACON
Wed 02:29:04 PM 40.4167 -73.9167 217° Southwest 172 198 6,100  Level New York TRACON
Wed 02:30:04 PM 40.3833 -73.9500 215° Southwest 172 198 6,100 316 Level New York TRACON
Wed 02:30:58 PM 40.3492 -73.9819 211° Southwest 173 199 6,700 857 Climbing New York Center
Wed 02:31:56 PM 40.3194 -74.0050 204° Southwest 153 176 7,700 966 Climbing New York Center
Wed 02:32:56 PM 40.2814 -74.0275 209° Southwest 141 162 8,600 843 Climbing New York Center
Wed 02:33:57 PM 40.2494 -74.0506 208° Southwest 141 162 9,400 706 Climbing New York Center
Wed 02:34:55 PM 40.2133 -74.0761 211° Southwest 146 168 10,000 303 Climbing New York Center
Wed 02:35:56 PM 40.1683 -74.1119 210° Southwest 167 192 10,000  Level New York Center
Wed 02:36:56 PM 40.1281 -74.1425 208° Southwest 167 192 10,000  Level New York Center
Wed 02:37:56 PM 40.0875 -74.1706 215° Southwest 167 192 10,000  Level New York Center
Wed 02:38:57 PM 40.0511 -74.2039 221° Southwest 172 198 10,000  Level New York Center
Wed 02:39:57 PM 40.0167 -74.2428 216° Southwest 177 204 10,000  Level New York Center
Wed 02:40:58 PM 39.9736 -74.2842 217° Southwest 177 204 10,000  Level New York Center
Wed 02:41:55 PM 39.9372 -74.3200 216° Southwest 177 204 10,000  Level New York Center
Wed 02:42:55 PM 39.8986 -74.3561 215° Southwest 182 209 10,000  Level New York Center
Wed 02:44:33 PM 39.8369 -74.4133 218° Southwest 172 198 10,000  Level Washington Center
Wed 02:45:33 PM 39.7997 -74.4517 215° Southwest 177 204 10,000  Level Washington Center
Wed 02:46:33 PM 39.7606 -74.4875 217° Southwest 177 204 10,000  Level Washington Center
Wed 02:47:31 PM 39.7214 -74.5258 215° Southwest 177 204 10,000  Level Washington Center
Wed 02:48:31 PM 39.6819 -74.5617 213° Southwest 177 204 10,000  Level Washington Center
Wed 02:49:32 PM 39.6406 -74.5972 217° Southwest 177 204 10,000  Level Washington Center
Wed 02:50:33 PM 39.6014 -74.6356 217° Southwest 177 204 10,000  Level Washington Center
Wed 02:51:33 PM 39.5619 -74.6736 216° Southwest 177 204 10,000  Level Washington Center
Wed 02:52:31 PM 39.5247 -74.7092 217° Southwest 177 204 10,000  Level Washington Center
Wed 02:53:31 PM 39.4856 -74.7472 217° Southwest 177 204 10,000  Level Washington Center
Wed 02:54:32 PM 39.4461 -74.7853 214° Southwest 177 204 10,000  Level Washington Center
Wed 02:55:32 PM 39.4047 -74.8208 217° Southwest 177 204 10,000  Level Washington Center
Wed 02:56:33 PM 39.3653 -74.8586 217° Southwest 177 204 10,000  Level Washington Center
Wed 02:57:33 PM 39.3261 -74.8967 215° Southwest 177 204 10,000  Level Washington Center
Wed 02:58:31 PM 39.2867 -74.9319 215° Southwest 177 204 10,000  Level Washington Center
Wed 02:59:31 PM 39.2450 -74.9697 233° Southwest 177 204 10,000  Level Washington Center
Wed 03:00:31 PM 39.2183 -75.0156 238° Southwest 177 204 10,000  Level Washington Center
Wed 03:01:32 PM 39.1936 -75.0667 238° Southwest 171 197 10,000  Level Washington Center
Wed 03:02:33 PM 39.1686 -75.1178 237° Southwest 171 197 10,000  Level Washington Center
Wed 03:03:31 PM 39.1439 -75.1661 236° Southwest 171 197 10,000  Level Washington Center
Wed 03:04:32 PM 39.1211 -75.2089 238° Southwest 171 197 10,000  Level Washington Center
Wed 03:05:32 PM 39.0961 -75.2600 236° Southwest 171 197 10,000  Level Washington Center
Wed 03:06:33 PM 39.0692 -75.3108 238° Southwest 171 197 10,000  Level Washington Center
Wed 03:07:33 PM 39.0444 -75.3617 234° Southwest 176 203 10,000  Level Washington Center
Wed 03:08:31 PM 39.0172 -75.4100 234° Southwest 176 203 10,000  Level Washington Center
Wed 03:09:31 PM 38.9903 -75.4581 240° Southwest 176 203 10,000  Level Washington Center
Wed 03:10:32 PM 38.9675 -75.5089 236° Southwest 176 203 10,000  Level Washington Center
Wed 03:11:30 PM 38.9425 -75.5569 236° Southwest 170 196 10,000  Level Washington Center
Wed 03:12:31 PM 38.9175 -75.6050 238° Southwest 170 196 10,000  Level Washington Center
Wed 03:13:31 PM 38.8925 -75.6556 236° Southwest 170 196 10,000  Level Washington Center
Wed 03:14:32 PM 38.8675 -75.7036 234° Southwest 170 196 10,000  Level Washington Center
Wed 03:15:32 PM 38.8403 -75.7517 235° Southwest 170 196 10,000  Level Washington Center
Wed 03:16:33 PM 38.8131 -75.8022 236° Southwest 170 196 10,000  Level Washington Center
Wed 03:17:31 PM 38.7881 -75.8500 234° Southwest 170 196 10,000  Level Washington Center
Wed 03:18:32 PM 38.7608 -75.8978 236° Southwest 175 201 10,000  Level Washington Center
Wed 03:19:32 PM 38.7356 -75.9456 240° Southwest 175 201 10,000  Level Washington Center
Wed 03:20:33 PM 38.7125 -75.9961 221° Southwest 175 201 10,000  Level Washington Center
Wed 03:21:33 PM 38.6789 -76.0331 215° Southwest 170 196 10,000  Level Washington Center
Wed 03:22:31 PM 38.6372 -76.0700 217° Southwest 170 196 10,000  Level Washington Center
Wed 03:23:32 PM 38.5994 -76.1069 218° Southwest 176 203 10,000  Level Washington Center
Wed 03:24:33 PM 38.5575 -76.1492 219° Southwest 183 211 10,000  Level Washington Center
Wed 03:25:33 PM 38.5242 -76.1833 217° Southwest 175 201 10,000  Level Washington Center
Wed 03:26:31 PM 38.4864 -76.2203 214° Southwest 175 201 10,000  Level Washington Center
Wed 03:27:32 PM 38.4467 -76.2544 217° Southwest 175 201 10,000  Level Washington Center
Wed 03:28:32 PM 38.4089 -76.2911 215° Southwest 175 201 10,000  Level Washington Center
Wed 03:29:32 PM 38.3711 -76.3253 218° Southwest 175 201 10,000  Level Washington Center
Wed 03:30:33 PM 38.3314 -76.3644 209° Southwest 175 201 10,000  Level Washington Center
Wed 03:31:31 PM 38.2872 -76.3958 223° Southwest 175 201 10,000  Level Washington Center
Wed 03:32:31 PM 38.2517 -76.4378 232° Southwest 180 207 10,000  Level Washington Center
Wed 03:33:32 PM 38.2242 -76.4825 231° Southwest 174 200 10,000  Level Washington Center
Wed 03:34:32 PM 38.1944 -76.5297 226° Southwest 169 194 10,000  Level Washington Center
Wed 03:35:33 PM 38.1608 -76.5742 226° Southwest 169 194 10,000  Level Washington Center
Wed 03:36:31 PM 38.1292 -76.6158 226° Southwest 169 194 10,000  Level Washington Center
Wed 03:37:32 PM 38.0975 -76.6578 226° Southwest 169 194 10,000  Level Washington Center
Wed 03:38:32 PM 38.0658 -76.6994 228° Southwest 169 194 10,000  Level Washington Center
Wed 03:39:33 PM 38.0364 -76.7411 226° Southwest 169 194 10,000  Level Washington Center
Wed 03:40:31 PM 38.0047 -76.7828 230° Southwest 169 194 10,000  Level Washington Center
Wed 03:41:32 PM 37.9750 -76.8272 211° Southwest 169 194 10,000 -50 Level Washington Center
Wed 03:42:32 PM 37.9350 -76.8581 193° South 169 194 9,900 -50 Descending Washington Center
Wed 03:43:33 PM 37.8828 -76.8731 200° South 179 206 9,900  Level Washington Center
Wed 03:44:33 PM 37.8344 -76.8958 200° South 186 214 9,900  Level Washington Center
Wed 03:45:31 PM 37.7842 -76.9186 199° South 186 214 9,900  Level Washington Center
Wed 03:46:32 PM 37.7381 -76.9389 199° South 186 214 9,900  Level Washington Center
Wed 03:47:33 PM 37.6919 -76.9592 198° South 186 214 9,900  Level Washington Center
Wed 03:48:33 PM 37.6439 -76.9792 196° South 186 214 9,900  Level Washington Center
Wed 03:49:31 PM 37.5956 -76.9967 201° Southwest 186 214 9,900  Level Washington Center
Wed 03:50:32 PM 37.5475 -77.0194 199° South 186 214 9,900  Level Washington Center
Wed 03:51:32 PM 37.4969 -77.0419 198° South 191 220 9,900  Level Washington Center
Wed 03:52:30 PM 37.4531 -77.0594 201° Southwest 185 213 9,900 50 Level Washington Center
Wed 03:53:31 PM 37.4111 -77.0794 198° South 185 213 10,000  Climbing Washington Center
Wed 03:54:32 PM 37.3544 -77.1019 202° Southwest 190 219 9,900 -49 Descending Washington Center
Wed 03:55:33 PM 37.3147 -77.1219 210° Southwest 184 212 9,900  Level Washington Center
Wed 03:56:33 PM 37.2767 -77.1500 226° Southwest 184 212 9,900 51 Level Washington Center
Wed 03:57:31 PM 37.2428 -77.1936 228° Southwest 173 199 10,000  Climbing Washington Center
Wed 03:58:31 PM 37.2131 -77.2347 227° Southwest 167 192 9,900 -50 Descending Washington Center
Wed 03:59:32 PM 37.1811 -77.2783 211° Southwest 167 192 9,900  Level Washington Center
Wed 04:00:33 PM 37.1411 -77.3089 217° Southwest 172 198 9,900  Level Washington Center
Wed 04:01:30 PM 37.1031 -77.3444 217° Southwest 172 198 9,900  Level Washington Center
Wed 04:02:31 PM 37.0650 -77.3800 215° Southwest 177 204 9,900  Level Washington Center
Wed 04:03:31 PM 37.0247 -77.4156 217° Southwest 177 204 9,900  Level Washington Center
Wed 04:04:32 PM 36.9867 -77.4511 215° Southwest 177 204 9,900  Level Washington Center
Wed 04:05:33 PM 36.9486 -77.4839 217° Southwest 177 204 9,900  Level Washington Center
Wed 04:06:34 PM 36.9061 -77.5244 213° Southwest 177 204 9,900  Level Washington Center
Wed 04:07:31 PM 36.8661 -77.5572 215° Southwest 177 204 9,900  Level Washington Center
Wed 04:08:32 PM 36.8281 -77.5900 216° Southwest 171 197 9,900  Level Washington Center
Wed 04:09:33 PM 36.7897 -77.6253 216° Southwest 171 197 9,900  Level Washington Center
Wed 04:10:31 PM 36.7536 -77.6581 213° Southwest 171 197 9,900  Level Washington Center
Wed 04:11:31 PM 36.7136 -77.6906 216° Southwest 176 203 9,900 50 Level Washington Center
Wed 04:12:32 PM 36.6775 -77.7233 214° Southwest 176 203 10,000  Climbing Washington Center
Wed 04:13:34 PM 36.6394 -77.7558 218° Southwest 176 203 9,900 -50 Descending Washington Center
Wed 04:14:32 PM 36.6011 -77.7936 214° Southwest 176 203 9,900  Level Washington Center
Wed 04:15:33 PM 36.5650 -77.8236 217° Southwest 176 203 9,900  Level Washington Center
Wed 04:16:31 PM 36.5269 -77.8589 214° Southwest 176 203 9,900 -203 Level Washington Center
Wed 04:17:31 PM 36.4886 -77.8914 213° Southwest 176 203 9,500 -694 Descending Washington Center
Wed 04:18:32 PM 36.4464 -77.9261 218° Southwest 176 203 8,500 -836 Descending Washington Center
Wed 04:19:33 PM 36.4058 -77.9661 211° Southwest 183 211 7,800 -652 Descending Washington Center
Wed 04:20:04 PM 36.3825 -77.9836 217° Southwest 181 208 7,500 -789 Descending Washington Center
Wed 04:20:49 PM 36.3506 -78.0136 210° Southwest 179 206 6,800 -955 Descending Washington Center
Wed 04:21:32 PM 36.3231 -78.0333 218° Southwest 183 211 6,100 -824 Descending Washington Center
Wed 04:22:31 PM 36.2892 -78.0658 215° Southwest 183 211 5,400 -756 Descending Washington Center
Wed 04:23:31 PM 36.2486 -78.1006 215° Southwest 178 205 4,600 -694 Descending Washington Center
Wed 04:24:32 PM 36.2061 -78.1378 216° Southwest 178 205 4,000 -298 Descending Washington Center
Wed 04:25:32 PM 36.1681 -78.1725 237° Southwest 178 205 4,000 50 Level Washington Center
Wed 04:26:33 PM 36.1439 -78.2181 240° Southwest 166 191 4,100  Climbing Washington Center
Wed 04:27:33 PM 36.1242 -78.2611 240° Southwest 166 191 4,000 -50 Descending Washington Center
Wed 04:28:33 PM 36.0981 -78.3169 240° Southwest 166 191 4,000  Level Washington Center
Wed 04:29:31 PM 36.0781 -78.3600 243° Southwest 166 191 4,000  Level Washington Center
Wed 04:30:07 PM 36.0628 -78.3978 237° Southwest 162 186 4,000 -121 Level Washington Center
Wed 04:31:10 PM 36.0386 -78.4433 237° Southwest 161 185 3,800 -440 Descending Washington Center
Wed 04:31:56 PM 36.0189 -78.4811 243° Southwest 168 193 3,200 -796 Descending Washington Center
Wed 04:33:03 PM 35.9944 -78.5417 249° West 167 192 2,300 -508 Descending Washington Center
Wed 04:34:06 PM 35.9786 -78.5925 252° West 163 188 2,100 -48 Descending Washington Center
Wed 04:35:07 PM 35.9650 -78.6433 239° Southwest 156 180 2,200 -50 Climbing Washington Center
Wed 04:36:07 PM 35.9428 -78.6886 238° Southwest 160 184 2,000 -248 Descending Washington Center
Wed 04:37:08 PM 35.9208 -78.7314 218° Southwest 146 168 1,700 -478 Descending Washington Center
Wed 04:38:00 PM 35.8931 -78.7586 218° Southwest 131 151 1,100 -692 Descending Washington Center

Login

Don't have an account? Register now (free) for customized features, flight alerts, and more!